Time;durP1;ratioP1;P1;durP2;ratioP2;P2;SDS_P1;SDS_P2;PMS_P1;PMS_P2;Temp;Humidity;BMP_temperature;BMP_pressure;BME280_temperature;BME280_humidity;BME280_pressure;Samples;Min_cycle;Max_cycle;Signal;HPM_P1;HPM_P2
2020/12/01 00:01:51;;;;;;;9.57;4.65;;;3.70;99.90;;;;;;5069600;28;20412;-60
2020/12/01 00:04:18;;;;;;;5.05;2.95;;;3.60;99.90;;;;;;5071871;28;20740;-60
2020/12/01 00:06:44;;;;;;;5.28;2.67;;;3.70;99.90;;;;;;5070157;28;20209;-60
2020/12/01 00:09:11;;;;;;;8.98;3.80;;;3.60;99.90;;;;;;5070511;28;20381;-60
2020/12/01 00:11:37;;;;;;;8.85;4.20;;;3.70;99.90;;;;;;5069156;28;20386;-60
2020/12/01 00:14:03;;;;;;;11.70;3.85;;;3.70;99.90;;;;;;5070643;28;20397;-60
2020/12/01 00:16:29;;;;;;;10.80;3.92;;;3.70;99.90;;;;;;5069252;28;20894;-60
2020/12/01 00:18:56;;;;;;;11.75;4.40;;;3.70;99.90;;;;;;5070270;28;20412;-60
2020/12/01 00:21:22;;;;;;;9.10;4.00;;;3.70;99.90;;;;;;5071053;28;20405;-60
2020/12/01 00:23:48;;;;;;;9.20;4.07;;;3.70;99.90;;;;;;5068393;28;20413;-60
2020/12/01 00:26:16;;;;;;;10.60;4.68;;;3.70;99.90;;;;;;5073592;28;20417;-60
2020/12/01 00:28:43;;;;;;;10.27;4.75;;;3.70;99.90;;;;;;5070064;28;20382;-60
2020/12/01 00:31:09;;;;;;;14.10;5.13;;;3.70;99.90;;;;;;5070714;28;20401;-60
2020/12/01 00:33:35;;;;;;;11.88;5.40;;;3.70;99.90;;;;;;5069289;28;20394;-60
2020/12/01 00:36:02;;;;;;;13.35;5.88;;;3.80;99.90;;;;;;5070461;28;20386;-60
2020/12/01 00:38:28;;;;;;;13.38;5.88;;;3.80;99.90;;;;;;5070237;28;20743;-60
2020/12/01 00:40:54;;;;;;;14.95;6.07;;;3.80;99.90;;;;;;5070892;28;20738;-60
2020/12/01 00:43:20;;;;;;;12.32;6.50;;;3.80;99.90;;;;;;5070350;28;20386;-60
2020/12/01 00:45:47;;;;;;;14.18;7.03;;;3.70;99.90;;;;;;5069964;28;20405;-60
2020/12/01 00:48:14;;;;;;;13.50;6.80;;;3.80;99.90;;;;;;5070110;28;20394;-60
2020/12/01 00:50:40;;;;;;;19.38;6.82;;;3.80;99.90;;;;;;5070137;28;20393;-60
2020/12/01 00:53:06;;;;;;;11.82;6.65;;;3.80;99.90;;;;;;5070062;28;20400;-60
2020/12/01 00:55:33;;;;;;;11.93;6.35;;;3.80;99.90;;;;;;5070141;28;20393;-60
2020/12/01 00:57:59;;;;;;;11.57;6.10;;;3.70;99.90;;;;;;5070062;28;20889;-60
2020/12/01 01:00:27;;;;;;;16.92;7.97;;;3.80;99.90;;;;;;5069948;28;20386;-60
2020/12/01 01:02:53;;;;;;;16.63;6.93;;;3.80;99.90;;;;;;5069402;28;20874;-60
2020/12/01 01:05:20;;;;;;;20.30;9.77;;;3.80;99.90;;;;;;5069586;28;20738;-60
2020/12/01 01:07:46;;;;;;;23.17;12.00;;;3.80;99.90;;;;;;5069342;28;20397;-60
2020/12/01 01:10:19;;;;;;;31.42;13.32;;;3.80;99.90;;;;;;5068630;28;20385;-60
2020/12/01 01:12:45;;;;;;;30.57;12.60;;;3.80;99.90;;;;;;5069602;28;20713;-60
2020/12/01 01:15:11;;;;;;;15.88;8.27;;;3.80;99.90;;;;;;5070071;28;20394;-60
2020/12/01 01:17:37;;;;;;;28.08;13.02;;;3.80;99.90;;;;;;5070326;28;20390;-60
2020/12/01 01:20:04;;;;;;;30.63;13.65;;;3.80;99.90;;;;;;5066480;28;20870;-60
2020/12/01 01:22:30;;;;;;;34.13;15.10;;;3.80;99.90;;;;;;5069561;28;20389;-59
2020/12/01 01:24:57;;;;;;;36.53;15.48;;;3.80;99.90;;;;;;5068433;28;20413;-60
2020/12/01 01:27:23;;;;;;;33.92;15.20;;;3.80;99.90;;;;;;5068370;28;20409;-60
2020/12/01 01:29:49;;;;;;;33.22;14.95;;;3.70;99.90;;;;;;5069764;28;20390;-60
2020/12/01 01:32:15;;;;;;;34.35;14.60;;;3.80;99.90;;;;;;5071537;28;20409;-60
2020/12/01 01:34:41;;;;;;;34.00;14.65;;;3.70;99.90;;;;;;5073042;28;20389;-60
2020/12/01 01:37:07;;;;;;;31.83;14.73;;;3.70;99.90;;;;;;5073077;28;20398;-60
2020/12/01 01:39:33;;;;;;;32.38;14.50;;;3.70;99.90;;;;;;5073012;28;20714;-60
2020/12/01 01:42:03;;;;;;;31.48;14.27;;;3.70;99.90;;;;;;5072028;28;20405;-60
2020/12/01 01:44:30;;;;;;;29.20;13.95;;;3.70;99.90;;;;;;5072759;28;20386;-60
2020/12/01 01:47:07;;;;;;;33.15;14.63;;;3.70;99.90;;;;;;5072909;28;20429;-60
2020/12/01 01:49:37;;;;;;;31.50;13.80;;;3.70;99.90;;;;;;5073190;28;20386;-60
2020/12/01 01:52:04;;;;;;;31.33;14.27;;;3.70;99.90;;;;;;5073023;28;20390;-60
2020/12/01 01:54:31;;;;;;;32.75;14.77;;;3.70;99.90;;;;;;5054789;28;20440;-60
2020/12/01 01:57:00;;;;;;;31.47;14.43;;;3.70;99.90;;;;;;5072048;28;20405;-60
2020/12/01 01:59:26;;;;;;;29.40;14.23;;;3.60;99.90;;;;;;5054975;28;20390;-60
2020/12/01 02:01:52;;;;;;;27.75;14.63;;;3.70;99.90;;;;;;5053787;28;20386;-60
2020/12/01 02:04:18;;;;;;;33.13;13.85;;;3.70;99.90;;;;;;5071390;28;20390;-60
2020/12/01 02:06:52;;;;;;;25.90;13.60;;;3.60;99.90;;;;;;5070763;28;20426;-60
2020/12/01 02:09:31;;;;;;;24.73;12.88;;;3.70;99.90;;;;;;5070443;28;20397;-60
2020/12/01 02:11:58;;;;;;;25.88;13.43;;;3.70;99.90;;;;;;5072191;28;20378;-60
2020/12/01 02:14:30;;;;;;;28.15;13.93;;;3.70;99.90;;;;;;5072089;28;20485;-60
2020/12/01 02:16:58;;;;;;;29.27;13.70;;;3.60;99.90;;;;;;5075972;28;20396;-60
2020/12/01 02:19:28;;;;;;;29.58;13.80;;;3.60;99.90;;;;;;5066525;28;20436;-60
2020/12/01 02:21:55;;;;;;;29.27;13.87;;;3.60;99.90;;;;;;5073884;28;20390;-60
2020/12/01 02:24:22;;;;;;;26.77;13.30;;;3.60;99.90;;;;;;5070922;28;20754;-60
2020/12/01 02:26:51;;;;;;;28.13;14.20;;;3.60;99.90;;;;;;5054335;28;20782;-60
2020/12/01 02:29:18;;;;;;;29.27;14.80;;;3.60;99.90;;;;;;5072347;28;20885;-60
2020/12/01 02:31:45;;;;;;;30.13;14.80;;;3.60;99.90;;;;;;5070644;28;20394;-60
2020/12/01 02:34:13;;;;;;;29.10;15.10;;;3.60;99.90;;;;;;5071083;28;20386;-60
2020/12/01 02:36:39;;;;;;;28.73;14.95;;;3.60;99.90;;;;;;5072404;28;20822;-60
2020/12/01 02:39:06;;;;;;;26.77;14.87;;;3.60;99.90;;;;;;5072453;28;20366;-60
2020/12/01 02:41:32;;;;;;;31.67;15.32;;;3.60;99.90;;;;;;5071827;28;20406;-60
2020/12/01 02:43:58;;;;;;;37.65;15.98;;;3.60;99.90;;;;;;5072603;28;20369;-60
2020/12/01 02:46:33;;;;;;;33.15;16.50;;;3.60;99.90;;;;;;5072389;28;20417;-60
2020/12/01 02:48:59;;;;;;;33.85;16.55;;;3.60;99.90;;;;;;5072379;28;20421;-60
2020/12/01 02:51:25;;;;;;;34.33;16.27;;;3.60;99.90;;;;;;5072401;28;20381;-60
2020/12/01 02:53:51;;;;;;;36.60;17.23;;;3.60;99.90;;;;;;5072008;28;20390;-60
2020/12/01 02:56:17;;;;;;;37.47;17.30;;;3.60;99.90;;;;;;5071999;28;20389;-60
2020/12/01 02:58:43;;;;;;;35.70;18.07;;;3.60;99.90;;;;;;5072068;28;20366;-60
2020/12/01 03:01:09;;;;;;;36.83;17.77;;;3.60;99.90;;;;;;5072202;28;20381;-60
2020/12/01 03:03:35;;;;;;;38.45;17.58;;;3.60;99.90;;;;;;5070804;28;20398;-60
2020/12/01 03:06:07;;;;;;;39.22;17.70;;;3.60;99.90;;;;;;5070198;28;20421;-60
2020/12/01 03:08:33;;;;;;;38.88;17.55;;;3.60;99.90;;;;;;5051394;28;20383;-60
2020/12/01 03:10:59;;;;;;;38.70;18.02;;;3.60;99.90;;;;;;5059458;28;20382;-60
2020/12/01 03:13:25;;;;;;;39.05;17.38;;;3.60;99.90;;;;;;5072038;28;20489;-60
2020/12/01 03:15:54;;;;;;;39.50;17.33;;;3.60;99.90;;;;;;5071324;28;20390;-60
2020/12/01 03:18:20;;;;;;;38.07;18.20;;;3.60;99.90;;;;;;5071296;28;20394;-60
2020/12/01 03:20:46;;;;;;;39.17;19.05;;;3.60;99.90;;;;;;5071804;28;20390;-60
2020/12/01 03:23:13;;;;;;;38.80;17.75;;;3.60;99.90;;;;;;5070346;28;20410;-61
2020/12/01 03:25:39;;;;;;;45.05;18.73;;;3.60;99.90;;;;;;5071064;28;20386;-60
2020/12/01 03:28:05;;;;;;;40.90;19.27;;;3.60;99.90;;;;;;5070898;28;20413;-60
2020/12/01 03:30:31;;;;;;;41.35;19.05;;;3.60;99.90;;;;;;5070731;28;20439;-60
2020/12/01 03:32:57;;;;;;;49.78;19.38;;;3.60;99.90;;;;;;5069913;28;20433;-60
2020/12/01 03:35:27;;;;;;;44.65;19.65;;;3.60;99.90;;;;;;5071171;28;20386;-61
2020/12/01 03:37:54;;;;;;;38.38;18.38;;;3.60;99.90;;;;;;5070553;28;20764;-60
2020/12/01 03:40:21;;;;;;;39.75;18.85;;;3.60;99.90;;;;;;5071137;28;20398;-60
2020/12/01 03:42:47;;;;;;;41.67;19.10;;;3.60;99.90;;;;;;5070680;28;20412;-60
2020/12/01 03:45:13;;;;;;;40.57;18.83;;;3.60;99.90;;;;;;5070839;28;20452;-60
2020/12/01 03:47:39;;;;;;;39.90;19.10;;;3.60;99.90;;;;;;5070881;28;20406;-60
2020/12/01 03:50:06;;;;;;;45.05;19.98;;;3.60;99.90;;;;;;5069573;28;20386;-60
2020/12/01 03:52:32;;;;;;;47.50;21.13;;;3.60;99.90;;;;;;5068833;28;20398;-60
2020/12/01 03:54:58;;;;;;;40.80;19.67;;;3.60;99.90;;;;;;5070071;28;20390;-60
2020/12/01 03:57:24;;;;;;;42.30;19.70;;;3.60;99.90;;;;;;5070939;28;20402;-60
2020/12/01 03:59:50;;;;;;;40.08;20.15;;;3.60;99.90;;;;;;5070411;28;20902;-61
2020/12/01 04:02:17;;;;;;;41.85;20.67;;;3.60;99.90;;;;;;5069818;28;20884;-61
2020/12/01 04:04:43;;;;;;;37.88;18.80;;;3.60;99.90;;;;;;5070191;28;20400;-60
2020/12/01 04:07:09;;;;;;;35.17;18.60;;;3.60;99.90;;;;;;5070089;28;20413;-61
2020/12/01 04:09:35;;;;;;;41.13;20.27;;;3.50;99.90;;;;;;5070204;28;20389;-60
2020/12/01 04:12:01;;;;;;;39.50;20.33;;;3.40;99.90;;;;;;5070397;28;20882;-60
2020/12/01 04:14:27;;;;;;;38.28;20.25;;;3.40;99.90;;;;;;5070590;28;20512;-60
2020/12/01 04:16:53;;;;;;;37.23;19.73;;;3.40;99.90;;;;;;5070266;28;20475;-60
2020/12/01 04:19:19;;;;;;;42.30;20.85;;;3.40;99.90;;;;;;5070890;28;20492;-61
2020/12/01 04:21:46;;;;;;;42.80;21.00;;;3.40;99.90;;;;;;5070081;28;20386;-60
2020/12/01 04:24:12;;;;;;;37.05;18.95;;;3.40;99.90;;;;;;5070392;28;20739;-60
2020/12/01 04:26:38;;;;;;;29.05;16.98;;;3.30;99.90;;;;;;5068999;28;20409;-60
2020/12/01 04:29:04;;;;;;;34.15;18.83;;;3.30;99.90;;;;;;5068807;28;20386;-60
2020/12/01 04:31:30;;;;;;;43.50;20.52;;;3.20;99.90;;;;;;5068165;28;20393;-61
2020/12/01 04:33:56;;;;;;;36.50;19.42;;;3.20;99.90;;;;;;5068566;28;20442;-61
2020/12/01 04:36:22;;;;;;;35.80;19.10;;;3.20;99.90;;;;;;5070417;28;20378;-61
2020/12/01 04:38:48;;;;;;;38.30;19.23;;;3.20;99.90;;;;;;5067627;28;20413;-61
2020/12/01 04:41:15;;;;;;;35.70;19.13;;;3.20;99.90;;;;;;5070059;28;20386;-60
2020/12/01 04:43:46;;;;;;;36.05;19.02;;;3.10;99.90;;;;;;5051995;28;20411;-60
2020/12/01 04:46:15;;;;;;;38.22;19.80;;;3.10;99.90;;;;;;5069580;28;20386;-60
2020/12/01 04:48:48;;;;;;;36.00;18.73;;;3.10;99.90;;;;;;5063305;28;20724;-60
2020/12/01 04:51:46;;;;;;;40.80;19.37;;;3.10;99.90;;;;;;5068401;28;20378;-60
2020/12/01 04:54:34;;;;;;;40.65;20.30;;;3.10;99.90;;;;;;5049723;28;20417;-61
2020/12/01 04:57:20;;;;;;;44.72;20.63;;;3.20;99.90;;;;;;5069884;28;20393;-61
2020/12/01 04:59:59;;;;;;;40.53;20.08;;;3.20;99.90;;;;;;5069116;28;20382;-61
2020/12/01 05:02:51;;;;;;;40.55;19.80;;;3.20;99.90;;;;;;5068414;28;20412;-61
2020/12/01 05:05:31;;;;;;;48.03;22.33;;;3.10;99.90;;;;;;5076153;28;20492;-61
2020/12/01 05:08:45;;;;;;;47.70;21.25;;;3.10;99.90;;;;;;5071959;28;20405;-60
2020/12/01 05:11:20;;;;;;;40.83;19.87;;;3.10;99.90;;;;;;5069217;28;20881;-60
2020/12/01 05:14:02;;;;;;;41.15;19.90;;;3.10;99.90;;;;;;5072638;28;20379;-61
2020/12/01 05:16:47;;;;;;;37.17;18.70;;;3.10;99.90;;;;;;5073312;28;20381;-60
2020/12/01 05:19:40;;;;;;;39.55;20.25;;;3.10;99.90;;;;;;5072007;28;20381;-60
2020/12/01 05:22:07;;;;;;;36.78;19.85;;;3.10;99.90;;;;;;5071144;28;20397;-60
2020/12/01 05:24:42;;;;;;;40.65;19.75;;;3.20;99.90;;;;;;5055445;28;20414;-61
2020/12/01 05:27:37;;;;;;;38.88;18.85;;;3.10;99.90;;;;;;5073846;28;20897;-60
2020/12/01 05:30:07;;;;;;;36.92;19.17;;;3.20;99.90;;;;;;5068539;28;20413;-61
2020/12/01 05:33:00;;;;;;;39.67;18.48;;;3.10;99.90;;;;;;5070726;28;20905;-60
2020/12/01 05:35:30;;;;;;;36.33;18.55;;;3.10;99.90;;;;;;5068659;28;20377;-60
2020/12/01 05:38:03;;;;;;;35.10;18.55;;;3.10;99.90;;;;;;5055046;28;20395;-60
2020/12/01 05:40:32;;;;;;;40.08;19.92;;;3.10;99.90;;;;;;5056966;28;20378;-61
2020/12/01 05:42:59;;;;;;;40.40;19.30;;;3.10;99.90;;;;;;5073589;28;20456;-61
2020/12/01 05:45:31;;;;;;;38.83;18.58;;;3.10;99.90;;;;;;5073809;28;20390;-61
2020/12/01 05:48:19;;;;;;;37.50;19.00;;;3.10;99.90;;;;;;5073706;28;20442;-61
2020/12/01 05:51:16;;;;;;;37.45;19.73;;;3.10;99.90;;;;;;5073152;28;20363;-60
2020/12/01 05:53:42;;;;;;;40.25;19.88;;;3.10;99.90;;;;;;5073121;28;20398;-60
2020/12/01 05:56:17;;;;;;;42.95;20.20;;;3.10;99.90;;;;;;5057406;28;20393;-60
2020/12/01 05:58:46;;;;;;;39.88;20.05;;;3.10;99.90;;;;;;5087226;28;20413;-60
2020/12/01 06:01:13;;;;;;;38.83;20.15;;;3.00;99.90;;;;;;5072568;28;20386;-60
2020/12/01 06:04:14;;;;;;;43.70;20.52;;;3.00;99.90;;;;;;5054909;28;20750;-60
2020/12/01 06:07:01;;;;;;;40.97;20.10;;;3.00;99.90;;;;;;5071657;28;20433;-60
2020/12/01 06:09:58;;;;;;;41.97;19.80;;;3.00;99.90;;;;;;5066890;28;20734;-60
2020/12/01 06:12:43;;;;;;;38.78;19.88;;;3.00;99.90;;;;;;5070255;28;20402;-60
2020/12/01 06:15:15;;;;;;;37.92;19.55;;;3.00;99.90;;;;;;5071809;28;20389;-61
2020/12/01 06:18:09;;;;;;;35.33;18.73;;;3.00;99.90;;;;;;5071200;28;20386;-60
2020/12/01 06:20:43;;;;;;;36.47;19.08;;;3.00;99.90;;;;;;5071105;28;20389;-61
2020/12/01 06:23:25;;;;;;;35.25;19.42;;;3.00;99.90;;;;;;5071666;28;20417;-60
2020/12/01 06:26:18;;;;;;;41.83;21.08;;;3.00;99.90;;;;;;5071449;28;20390;-60
2020/12/01 06:29:06;;;;;;;39.53;20.45;;;2.90;99.90;;;;;;5071070;28;20491;-61
2020/12/01 06:31:53;;;;;;;42.63;21.00;;;2.90;99.90;;;;;;5058446;28;20384;-61
2020/12/01 06:34:44;;;;;;;39.92;20.70;;;2.90;99.90;;;;;;5065588;28;20406;-60
2020/12/01 06:37:22;;;;;;;45.20;21.77;;;2.90;99.90;;;;;;5071222;28;20850;-61
2020/12/01 06:39:49;;;;;;;42.22;21.58;;;2.90;99.90;;;;;;5070818;28;20390;-61
2020/12/01 06:42:18;;;;;;;41.67;21.63;;;2.90;99.90;;;;;;5070693;28;20811;-61
2020/12/01 06:44:53;;;;;;;41.17;20.87;;;2.90;99.90;;;;;;5070777;28;20398;-60
2020/12/01 06:47:24;;;;;;;42.90;20.73;;;2.90;99.90;;;;;;5070108;28;20770;-61
2020/12/01 06:49:53;;;;;;;41.95;21.30;;;2.90;99.90;;;;;;5071341;28;20409;-60
2020/12/01 06:52:19;;;;;;;39.40;20.52;;;2.90;99.90;;;;;;5070041;28;20397;-61
2020/12/01 06:54:50;;;;;;;43.00;21.55;;;2.90;99.90;;;;;;5069170;28;20397;-61
2020/12/01 06:57:32;;;;;;;40.00;21.05;;;2.80;99.90;;;;;;5071480;28;20901;-60
2020/12/01 06:59:58;;;;;;;44.58;22.25;;;2.80;99.90;;;;;;5069685;28;20866;-60
2020/12/01 07:02:35;;;;;;;47.00;21.85;;;2.80;99.90;;;;;;5070620;28;20402;-61
2020/12/01 07:05:25;;;;;;;46.65;22.77;;;2.80;99.90;;;;;;5069694;28;20369;-60
2020/12/01 07:07:51;;;;;;;44.78;21.15;;;2.80;99.90;;;;;;5064036;28;20398;-60
2020/12/01 07:10:26;;;;;;;44.88;21.92;;;2.80;99.90;;;;;;5071358;28;20382;-60
2020/12/01 07:13:06;;;;;;;43.33;22.20;;;2.80;99.90;;;;;;5068588;28;20367;-60
2020/12/01 07:15:47;;;;;;;51.23;22.97;;;2.80;99.90;;;;;;5066916;28;20385;-60
2020/12/01 07:18:27;;;;;;;45.00;22.10;;;2.80;99.90;;;;;;5068477;28;20370;-60
2020/12/01 07:21:21;;;;;;;47.80;22.70;;;2.80;99.90;;;;;;5067560;28;20373;-61
2020/12/01 07:24:04;;;;;;;42.45;20.83;;;2.80;99.90;;;;;;5069319;28;20409;-60
2020/12/01 07:26:48;;;;;;;45.70;21.30;;;2.80;99.90;;;;;;5054102;28;20385;-60
2020/12/01 07:29:57;;;;;;;40.60;20.60;;;2.90;99.90;;;;;;5067451;28;20394;-61
2020/12/01 07:32:26;;;;;;;43.33;21.42;;;2.90;99.90;;;;;;5069685;28;20395;-60
2020/12/01 07:35:05;;;;;;;36.58;19.60;;;2.80;99.90;;;;;;5069111;28;20382;-60
2020/12/01 07:37:40;;;;;;;39.15;20.10;;;2.80;99.90;;;;;;5069882;28;20731;-61
2020/12/01 07:40:07;;;;;;;39.70;20.85;;;2.80;99.90;;;;;;5070175;28;20389;-60
2020/12/01 07:42:35;;;;;;;40.80;20.80;;;2.80;99.90;;;;;;5070246;28;20688;-61
2020/12/01 07:45:10;;;;;;;44.87;21.10;;;2.80;99.90;;;;;;5070419;28;20390;-60
2020/12/01 07:47:37;;;;;;;42.72;21.30;;;2.80;99.90;;;;;;5067897;28;20897;-60
2020/12/01 07:50:05;;;;;;;40.67;20.92;;;2.80;99.90;;;;;;5069836;28;20390;-60
2020/12/01 07:52:34;;;;;;;41.17;20.63;;;2.80;99.90;;;;;;5068675;28;20880;-60
2020/12/01 07:55:21;;;;;;;45.97;21.50;;;2.80;99.90;;;;;;5051927;28;20769;-60
2020/12/01 07:57:58;;;;;;;45.22;21.42;;;2.80;99.90;;;;;;5067415;28;20405;-60
2020/12/01 08:00:25;;;;;;;42.53;20.92;;;2.80;99.90;;;;;;5070307;28;20378;-60
2020/12/01 08:02:58;;;;;;;40.55;20.33;;;2.80;99.90;;;;;;5069123;28;20398;-61
2020/12/01 08:05:24;;;;;;;48.20;21.80;;;2.80;99.90;;;;;;5066503;28;20858;-60
2020/12/01 08:07:55;;;;;;;41.55;20.85;;;2.90;99.90;;;;;;5050865;28;20410;-61
2020/12/01 08:10:21;;;;;;;39.17;20.20;;;2.90;99.90;;;;;;5070234;28;20387;-60
2020/12/01 08:12:49;;;;;;;42.80;21.53;;;2.90;99.90;;;;;;5069026;28;20858;-60
2020/12/01 08:15:17;;;;;;;38.20;20.30;;;2.90;99.90;;;;;;5052181;28;20378;-60
2020/12/01 08:17:43;;;;;;;41.03;21.37;;;2.90;99.90;;;;;;5068096;28;20645;-60
2020/12/01 08:20:14;;;;;;;38.80;20.60;;;2.90;99.90;;;;;;5069974;28;20731;-60
2020/12/01 08:22:41;;;;;;;36.50;19.88;;;2.90;99.90;;;;;;5052794;28;20402;-60
2020/12/01 08:25:11;;;;;;;38.95;20.65;;;3.00;99.90;;;;;;5035600;28;20894;-60
2020/12/01 08:27:43;;;;;;;37.97;20.83;;;3.00;99.90;;;;;;5052391;28;20398;-61
2020/12/01 08:30:26;;;;;;;37.88;20.25;;;3.10;99.90;;;;;;5066696;28;20394;-60
2020/12/01 08:32:56;;;;;;;37.90;20.60;;;3.10;99.90;;;;;;5061057;28;20394;-60
2020/12/01 08:35:25;;;;;;;34.55;19.38;;;3.20;99.90;;;;;;5068639;28;20386;-61
2020/12/01 08:38:12;;;;;;;35.35;18.88;;;3.20;99.90;;;;;;5069574;28;20382;-61
2020/12/01 08:41:15;;;;;;;38.42;19.85;;;3.30;99.90;;;;;;5070761;28;20858;-61
2020/12/01 08:44:03;;;;;;;37.35;20.77;;;3.30;99.90;;;;;;5073714;28;20414;-60
2020/12/01 08:46:30;;;;;;;38.30;20.15;;;3.40;99.90;;;;;;5073156;28;20382;-61
2020/12/01 08:49:06;;;;;;;33.10;18.77;;;3.50;99.90;;;;;;5055025;28;20941;-61
2020/12/01 08:51:48;;;;;;;35.35;18.90;;;3.60;99.90;;;;;;5056679;28;20382;-61
2020/12/01 08:54:27;;;;;;;33.53;20.08;;;3.60;99.90;;;;;;5074162;28;20400;-61
2020/12/01 08:57:08;;;;;;;34.38;19.35;;;3.70;99.90;;;;;;5073336;28;20873;-61
2020/12/01 08:59:43;;;;;;;33.88;19.00;;;3.70;99.90;;;;;;5069680;28;20399;-61
2020/12/01 09:02:09;;;;;;;37.00;19.43;;;3.80;99.90;;;;;;5062254;28;20394;-61
2020/12/01 09:04:36;;;;;;;35.17;19.38;;;3.90;99.90;;;;;;5069756;28;20393;-61
2020/12/01 09:07:14;;;;;;;33.30;19.00;;;3.90;99.90;;;;;;5071562;28;20386;-61
2020/12/01 09:09:41;;;;;;;35.00;18.90;;;3.90;99.90;;;;;;5073355;28;20747;-61
2020/12/01 09:12:39;;;;;;;29.80;18.40;;;4.00;99.90;;;;;;5072639;28;20387;-60
2020/12/01 09:15:24;;;;;;;31.40;18.30;;;4.00;99.90;;;;;;5072890;28;20389;-61
2020/12/01 09:21:52;;;;;;;29.00;17.85;;;4.10;99.90;;;;;;5078196;28;20382;-61
2020/12/01 09:23:24;;;;;;;28.77;17.77;;;4.10;99.90;;;;;;5076757;28;20424;-60
2020/12/01 09:25:51;;;;;;;31.13;17.83;;;4.20;99.90;;;;;;5073190;28;20408;-61
2020/12/01 09:28:23;;;;;;;25.92;16.17;;;4.10;99.90;;;;;;5071687;28;20410;-61
2020/12/01 09:30:49;;;;;;;29.55;17.83;;;4.10;99.90;;;;;;5066669;28;20397;-61
2020/12/01 09:33:18;;;;;;;27.35;17.30;;;4.10;99.90;;;;;;5071587;28;20398;-61
2020/12/01 09:35:44;;;;;;;27.95;17.30;;;4.20;99.90;;;;;;5072839;28;20913;-62
2020/12/01 09:38:10;;;;;;;28.58;17.17;;;4.10;99.90;;;;;;5072510;28;20746;-61
2020/12/01 09:40:37;;;;;;;28.83;17.38;;;4.20;99.90;;;;;;5071747;28;20408;-61
2020/12/01 09:43:19;;;;;;;31.52;18.00;;;4.20;99.90;;;;;;5070846;28;20390;-61
2020/12/01 09:45:47;;;;;;;30.92;18.52;;;4.30;99.90;;;;;;5072640;28;20378;-61
2020/12/01 09:48:21;;;;;;;27.30;17.40;;;4.40;99.90;;;;;;5070989;28;20414;-61
2020/12/01 09:50:47;;;;;;;27.20;16.90;;;4.50;99.90;;;;;;5071947;28;20386;-61
2020/12/01 10:08:35;;;;;;;31.50;17.48;;;4.80;99.90;;;;;;5072192;28;20410;-61
2020/12/01 10:17:45;;;;;;;24.50;15.70;;;5.20;99.90;;;;;;5067635;28;20584;-61
2020/12/01 10:36:22;;;;;;;20.20;13.52;;;6.20;99.90;;;;;;5069996;28;20440;-61
2020/12/01 10:38:48;;;;;;;20.13;13.30;;;6.40;99.90;;;;;;5071484;28;20406;-61
2020/12/01 10:41:14;;;;;;;17.65;12.30;;;6.70;99.90;;;;;;5071461;28;20739;-61
2020/12/01 10:43:40;;;;;;;21.05;12.73;;;7.00;99.90;;;;;;5071999;28;20402;-61
2020/12/01 10:46:09;;;;;;;16.67;12.07;;;6.90;99.90;;;;;;5070683;28;20437;-56
2020/12/01 10:48:35;;;;;;;17.48;12.73;;;6.70;99.90;;;;;;5071444;28;20428;-58
2020/12/01 10:51:01;;;;;;;19.00;12.88;;;6.50;99.90;;;;;;5071256;28;20386;-59
2020/12/01 10:53:27;;;;;;;22.45;14.20;;;6.30;99.90;;;;;;5071116;28;20405;-58
2020/12/01 10:55:54;;;;;;;21.40;13.63;;;6.40;99.90;;;;;;5069296;28;20385;-57
2020/12/01 10:58:20;;;;;;;19.00;13.35;;;6.40;99.90;;;;;;5071111;28;20397;-58
2020/12/01 11:00:46;;;;;;;19.73;13.05;;;6.20;99.90;;;;;;5071394;28;20731;-58
2020/12/01 11:03:12;;;;;;;20.83;13.45;;;6.30;99.90;;;;;;5069761;28;20417;-58
2020/12/01 11:05:38;;;;;;;22.15;14.30;;;6.30;99.90;;;;;;5070533;28;20926;-58
2020/12/01 11:08:05;;;;;;;19.27;13.27;;;6.30;99.90;;;;;;5070103;28;20477;-57
2020/12/01 11:10:31;;;;;;;24.17;14.23;;;6.40;99.90;;;;;;5069781;28;20398;-57
2020/12/01 11:12:57;;;;;;;21.00;13.63;;;6.40;99.90;;;;;;5070578;28;20889;-57
2020/12/01 11:15:24;;;;;;;22.45;14.20;;;6.40;99.90;;;;;;5070968;28;20739;-56
2020/12/01 11:17:50;;;;;;;22.20;14.63;;;6.50;99.90;;;;;;5070412;28;20874;-55
2020/12/01 11:20:17;;;;;;;20.52;14.15;;;6.60;99.90;;;;;;5070784;28;20405;-57
2020/12/01 11:22:45;;;;;;;22.63;14.65;;;6.60;99.90;;;;;;5070235;28;20699;-62
2020/12/01 11:25:11;;;;;;;21.67;14.32;;;6.50;99.90;;;;;;5070211;28;20410;-60
2020/12/01 11:27:37;;;;;;;22.80;14.57;;;6.40;99.90;;;;;;5069468;28;20389;-57
2020/12/01 11:30:04;;;;;;;20.67;13.73;;;6.30;99.90;;;;;;5068091;28;20456;-57
2020/12/01 11:32:30;;;;;;;23.88;14.15;;;6.30;99.90;;;;;;5069126;28;20394;-57
2020/12/01 11:34:56;;;;;;;23.40;14.83;;;6.40;99.90;;;;;;5068802;28;20386;-58
2020/12/01 11:37:22;;;;;;;21.83;13.97;;;6.50;99.90;;;;;;5069474;28;20378;-60
2020/12/01 11:39:48;;;;;;;19.63;13.53;;;6.70;99.90;;;;;;5070449;28;20404;-57
2020/12/01 11:42:14;;;;;;;20.40;13.32;;;6.60;99.90;;;;;;5069384;28;20378;-69
2020/12/01 11:44:41;;;;;;;19.10;13.25;;;6.60;99.90;;;;;;5069972;28;20401;-57
2020/12/01 11:47:07;;;;;;;22.23;12.32;;;6.60;99.90;;;;;;5068889;28;20374;-57
2020/12/01 11:49:33;;;;;;;20.48;13.40;;;6.50;99.90;;;;;;5070442;28;20411;-57
2020/12/01 11:51:59;;;;;;;20.00;13.45;;;6.50;99.90;;;;;;5070374;28;20374;-58
2020/12/01 11:54:25;;;;;;;22.10;13.77;;;6.40;99.90;;;;;;5068978;28;20906;-57
2020/12/01 11:56:51;;;;;;;20.05;13.07;;;6.30;99.90;;;;;;5070149;28;20393;-58
2020/12/01 11:59:18;;;;;;;22.70;13.60;;;6.30;99.90;;;;;;5070455;28;20390;-58
2020/12/01 12:01:46;;;;;;;19.55;13.50;;;6.40;99.90;;;;;;5061973;28;20493;-58
2020/12/01 12:04:12;;;;;;;21.35;13.27;;;6.40;99.90;;;;;;5067530;28;20896;-57
2020/12/01 12:06:38;;;;;;;24.57;14.17;;;6.40;99.90;;;;;;5070581;28;20398;-57
2020/12/01 12:09:06;;;;;;;25.38;13.98;;;6.40;99.90;;;;;;5069880;28;20483;-58
2020/12/01 12:11:32;;;;;;;21.67;13.80;;;6.40;99.90;;;;;;5069497;28;20393;-58
2020/12/01 12:13:59;;;;;;;18.67;12.10;;;6.50;99.90;;;;;;5067552;28;20391;-58
2020/12/01 12:16:25;;;;;;;20.25;12.70;;;6.50;99.90;;;;;;5067273;28;20378;-58
2020/12/01 12:18:51;;;;;;;21.05;13.15;;;6.50;99.90;;;;;;5068613;28;20401;-58
2020/12/01 12:21:18;;;;;;;18.13;12.40;;;6.50;99.90;;;;;;5068297;28;20704;-58
2020/12/01 12:23:45;;;;;;;19.55;12.32;;;6.50;99.90;;;;;;5068942;28;20410;-58
2020/12/01 12:26:12;;;;;;;17.65;11.93;;;6.50;99.90;;;;;;5068778;28;20416;-57
2020/12/01 12:28:38;;;;;;;18.83;13.02;;;6.50;99.90;;;;;;5069114;28;20410;-58
2020/12/01 12:31:05;;;;;;;17.92;12.90;;;6.60;99.90;;;;;;5068832;28;20700;-59
2020/12/01 12:33:31;;;;;;;21.23;13.73;;;6.70;99.90;;;;;;5067235;28;20417;-58
2020/12/01 12:35:57;;;;;;;24.65;14.40;;;6.70;99.90;;;;;;5055923;28;20387;-58
2020/12/01 12:38:24;;;;;;;23.77;13.85;;;6.70;99.90;;;;;;5058994;28;20401;-57
2020/12/01 12:40:51;;;;;;;19.05;13.70;;;6.70;99.90;;;;;;5070572;28;20366;-57
2020/12/01 12:43:18;;;;;;;19.53;12.63;;;6.80;99.90;;;;;;5070337;28;20461;-57
2020/12/01 12:45:45;;;;;;;18.63;13.15;;;7.00;99.90;;;;;;5069108;28;20381;-58
2020/12/01 12:48:11;;;;;;;19.17;13.23;;;7.10;99.90;;;;;;5068759;28;20826;-57
2020/12/01 12:50:37;;;;;;;22.45;13.77;;;7.10;99.90;;;;;;5069841;28;20734;-57
2020/12/01 12:53:03;;;;;;;19.70;13.10;;;6.90;99.90;;;;;;5070071;28;20398;-58
2020/12/01 12:55:29;;;;;;;19.63;13.37;;;6.70;99.90;;;;;;5070332;28;20394;-57
2020/12/01 12:57:58;;;;;;;20.65;13.75;;;6.70;99.90;;;;;;5069100;28;20386;-57
2020/12/01 13:00:29;;;;;;;20.88;13.18;;;6.70;99.90;;;;;;5069849;28;20479;-57
2020/12/01 13:02:55;;;;;;;24.02;14.10;;;6.70;99.90;;;;;;5063283;28;20559;-57
2020/12/01 13:05:21;;;;;;;21.30;14.57;;;6.80;99.90;;;;;;5066092;28;20382;-57
2020/12/01 13:07:47;;;;;;;24.38;15.55;;;6.60;99.90;;;;;;5067779;28;20394;-58
2020/12/01 13:10:14;;;;;;;21.48;13.65;;;6.50;99.90;;;;;;5069570;28;20394;-57
2020/12/01 13:12:40;;;;;;;19.80;13.13;;;6.40;99.90;;;;;;5067988;28;20370;-58
2020/12/01 13:15:06;;;;;;;19.17;13.18;;;6.40;99.90;;;;;;5069287;28;20386;-57
2020/12/01 13:17:33;;;;;;;19.93;12.80;;;6.40;99.90;;;;;;5069463;28;20385;-58
2020/12/01 13:19:59;;;;;;;19.33;12.50;;;6.30;99.90;;;;;;5069690;28;20397;-57
2020/12/01 13:22:28;;;;;;;19.95;12.70;;;6.30;99.90;;;;;;5069591;28;20754;-58
2020/12/01 13:24:54;;;;;;;18.30;12.02;;;6.20;99.90;;;;;;5069138;28;20406;-58
2020/12/01 13:27:20;;;;;;;18.83;12.38;;;6.00;99.90;;;;;;5070997;28;20404;-56
2020/12/01 13:29:46;;;;;;;19.88;12.55;;;5.90;99.90;;;;;;5072716;28;20402;-57
2020/12/01 13:32:13;;;;;;;18.25;10.23;;;5.80;99.90;;;;;;5073006;28;20174;-57
2020/12/01 13:34:39;;;;;;;;;;;5.80;99.90;;;;;;5067493;28;20051;-57
2020/12/01 13:37:05;;;;;;;21.48;12.30;;;5.70;99.90;;;;;;5070701;28;20399;-57